sensor_id;sensor_type;location;lat;lon;timestamp;P1;durP1;ratioP1;P2;durP2;ratioP2
22894;SDS011;11614;52.494;6.976;2023-10-08T00:01:02;13.40;;;6.88;;
22894;SDS011;11614;52.494;6.976;2023-10-08T00:03:31;16.15;;;6.80;;
22894;SDS011;11614;52.494;6.976;2023-10-08T00:05:58;15.15;;;7.10;;
22894;SDS011;11614;52.494;6.976;2023-10-08T00:08:24;11.15;;;4.70;;
22894;SDS011;11614;52.494;6.976;2023-10-08T00:10:50;10.98;;;5.35;;
22894;SDS011;11614;52.494;6.976;2023-10-08T00:13:16;15.88;;;7.43;;
22894;SDS011;11614;52.494;6.976;2023-10-08T00:15:43;14.73;;;6.85;;
22894;SDS011;11614;52.494;6.976;2023-10-08T00:18:19;6.72;;;3.88;;
22894;SDS011;11614;52.494;6.976;2023-10-08T00:20:47;4.03;;;2.15;;
22894;SDS011;11614;52.494;6.976;2023-10-08T00:23:23;3.53;;;1.30;;
22894;SDS011;11614;52.494;6.976;2023-10-08T00:25:55;2.13;;;0.87;;
22894;SDS011;11614;52.494;6.976;2023-10-08T00:28:23;0.93;;;0.70;;
22894;SDS011;11614;52.494;6.976;2023-10-08T00:30:49;2.80;;;0.93;;
22894;SDS011;11614;52.494;6.976;2023-10-08T00:33:18;1.30;;;0.70;;
22894;SDS011;11614;52.494;6.976;2023-10-08T00:35:44;2.67;;;1.03;;
22894;SDS011;11614;52.494;6.976;2023-10-08T00:38:12;1.50;;;0.90;;
22894;SDS011;11614;52.494;6.976;2023-10-08T00:40:45;1.43;;;1.03;;
22894;SDS011;11614;52.494;6.976;2023-10-08T00:43:32;2.70;;;1.27;;
22894;SDS011;11614;52.494;6.976;2023-10-08T00:45:59;2.67;;;1.00;;
22894;SDS011;11614;52.494;6.976;2023-10-08T00:48:28;2.30;;;1.50;;
22894;SDS011;11614;52.494;6.976;2023-10-08T00:51:00;2.33;;;1.47;;
22894;SDS011;11614;52.494;6.976;2023-10-08T00:53:45;1.47;;;0.73;;
22894;SDS011;11614;52.494;6.976;2023-10-08T00:56:11;1.63;;;0.63;;
22894;SDS011;11614;52.494;6.976;2023-10-08T00:58:44;2.47;;;0.60;;
22894;SDS011;11614;52.494;6.976;2023-10-08T01:01:14;1.20;;;0.50;;
22894;SDS011;11614;52.494;6.976;2023-10-08T01:03:41;0.97;;;0.50;;
22894;SDS011;11614;52.494;6.976;2023-10-08T01:06:12;1.47;;;0.50;;
22894;SDS011;11614;52.494;6.976;2023-10-08T01:08:43;1.37;;;0.60;;
22894;SDS011;11614;52.494;6.976;2023-10-08T01:11:23;1.27;;;0.60;;
22894;SDS011;11614;52.494;6.976;2023-10-08T01:14:09;1.63;;;0.47;;
22894;SDS011;11614;52.494;6.976;2023-10-08T01:16:35;3.17;;;0.70;;
22894;SDS011;11614;52.494;6.976;2023-10-08T01:19:01;1.13;;;0.40;;
22894;SDS011;11614;52.494;6.976;2023-10-08T01:21:30;3.10;;;0.80;;
22894;SDS011;11614;52.494;6.976;2023-10-08T01:24:02;0.97;;;0.60;;
22894;SDS011;11614;52.494;6.976;2023-10-08T01:26:31;3.97;;;0.50;;
22894;SDS011;11614;52.494;6.976;2023-10-08T01:28:57;1.13;;;0.47;;
22894;SDS011;11614;52.494;6.976;2023-10-08T01:31:32;4.20;;;1.33;;
22894;SDS011;11614;52.494;6.976;2023-10-08T01:33:58;1.77;;;0.83;;
22894;SDS011;11614;52.494;6.976;2023-10-08T01:36:25;2.20;;;0.80;;
22894;SDS011;11614;52.494;6.976;2023-10-08T01:38:51;3.97;;;1.27;;
22894;SDS011;11614;52.494;6.976;2023-10-08T01:41:19;1.70;;;1.00;;
22894;SDS011;11614;52.494;6.976;2023-10-08T01:43:47;2.63;;;1.10;;
22894;SDS011;11614;52.494;6.976;2023-10-08T01:46:17;4.77;;;1.27;;
22894;SDS011;11614;52.494;6.976;2023-10-08T01:48:46;4.17;;;1.70;;
22894;SDS011;11614;52.494;6.976;2023-10-08T01:51:15;2.37;;;1.50;;
22894;SDS011;11614;52.494;6.976;2023-10-08T01:54:01;2.70;;;1.33;;
22894;SDS011;11614;52.494;6.976;2023-10-08T01:56:28;1.93;;;1.30;;
22894;SDS011;11614;52.494;6.976;2023-10-08T01:58:55;3.80;;;1.67;;
22894;SDS011;11614;52.494;6.976;2023-10-08T02:01:23;2.07;;;1.10;;
22894;SDS011;11614;52.494;6.976;2023-10-08T02:03:49;3.97;;;1.37;;
22894;SDS011;11614;52.494;6.976;2023-10-08T02:06:15;2.33;;;1.10;;
22894;SDS011;11614;52.494;6.976;2023-10-08T02:08:41;1.93;;;1.10;;
22894;SDS011;11614;52.494;6.976;2023-10-08T02:11:07;3.00;;;1.43;;
22894;SDS011;11614;52.494;6.976;2023-10-08T02:13:33;2.07;;;1.30;;
22894;SDS011;11614;52.494;6.976;2023-10-08T02:15:59;2.40;;;1.20;;
22894;SDS011;11614;52.494;6.976;2023-10-08T02:18:26;2.70;;;1.20;;
22894;SDS011;11614;52.494;6.976;2023-10-08T02:20:54;2.33;;;1.10;;
22894;SDS011;11614;52.494;6.976;2023-10-08T02:23:20;2.73;;;1.30;;
22894;SDS011;11614;52.494;6.976;2023-10-08T02:25:46;2.27;;;1.30;;
22894;SDS011;11614;52.494;6.976;2023-10-08T02:28:13;2.67;;;1.50;;
22894;SDS011;11614;52.494;6.976;2023-10-08T02:30:40;2.30;;;1.50;;
22894;SDS011;11614;52.494;6.976;2023-10-08T02:33:06;3.07;;;1.30;;
22894;SDS011;11614;52.494;6.976;2023-10-08T02:35:42;2.40;;;1.10;;
22894;SDS011;11614;52.494;6.976;2023-10-08T02:38:12;3.80;;;1.40;;
22894;SDS011;11614;52.494;6.976;2023-10-08T02:40:41;2.03;;;1.20;;
22894;SDS011;11614;52.494;6.976;2023-10-08T02:43:11;2.97;;;1.47;;
22894;SDS011;11614;52.494;6.976;2023-10-08T02:45:39;4.10;;;1.63;;
22894;SDS011;11614;52.494;6.976;2023-10-08T02:48:06;3.47;;;1.73;;
22894;SDS011;11614;52.494;6.976;2023-10-08T02:50:39;2.63;;;1.40;;
22894;SDS011;11614;52.494;6.976;2023-10-08T02:53:10;2.47;;;1.53;;
22894;SDS011;11614;52.494;6.976;2023-10-08T02:55:37;2.73;;;1.60;;
22894;SDS011;11614;52.494;6.976;2023-10-08T02:58:07;2.90;;;1.30;;
22894;SDS011;11614;52.494;6.976;2023-10-08T03:00:39;2.60;;;1.20;;
22894;SDS011;11614;52.494;6.976;2023-10-08T03:03:05;2.90;;;1.70;;
22894;SDS011;11614;52.494;6.976;2023-10-08T03:05:53;3.80;;;1.90;;
22894;SDS011;11614;52.494;6.976;2023-10-08T03:08:22;2.77;;;1.50;;
22894;SDS011;11614;52.494;6.976;2023-10-08T03:10:49;2.30;;;1.60;;
22894;SDS011;11614;52.494;6.976;2023-10-08T03:13:16;3.60;;;1.77;;
22894;SDS011;11614;52.494;6.976;2023-10-08T03:15:42;3.10;;;1.63;;
22894;SDS011;11614;52.494;6.976;2023-10-08T03:18:22;3.23;;;1.60;;
22894;SDS011;11614;52.494;6.976;2023-10-08T03:20:49;3.90;;;2.10;;
22894;SDS011;11614;52.494;6.976;2023-10-08T03:23:16;3.10;;;1.90;;
22894;SDS011;11614;52.494;6.976;2023-10-08T03:25:55;3.53;;;1.70;;
22894;SDS011;11614;52.494;6.976;2023-10-08T03:28:24;3.47;;;2.03;;
22894;SDS011;11614;52.494;6.976;2023-10-08T03:30:51;3.87;;;1.60;;
22894;SDS011;11614;52.494;6.976;2023-10-08T03:33:21;3.63;;;1.90;;
22894;SDS011;11614;52.494;6.976;2023-10-08T03:35:51;2.67;;;1.47;;
22894;SDS011;11614;52.494;6.976;2023-10-08T03:38:18;3.73;;;2.03;;
22894;SDS011;11614;52.494;6.976;2023-10-08T03:40:56;2.70;;;1.47;;
22894;SDS011;11614;52.494;6.976;2023-10-08T03:43:34;3.50;;;2.00;;
22894;SDS011;11614;52.494;6.976;2023-10-08T03:46:09;3.13;;;2.13;;
22894;SDS011;11614;52.494;6.976;2023-10-08T03:48:41;2.53;;;1.63;;
22894;SDS011;11614;52.494;6.976;2023-10-08T03:51:09;3.30;;;1.47;;
22894;SDS011;11614;52.494;6.976;2023-10-08T03:53:37;3.03;;;1.50;;
22894;SDS011;11614;52.494;6.976;2023-10-08T03:56:22;2.90;;;1.73;;
22894;SDS011;11614;52.494;6.976;2023-10-08T03:58:49;2.77;;;1.40;;
22894;SDS011;11614;52.494;6.976;2023-10-08T04:01:18;2.60;;;1.60;;
22894;SDS011;11614;52.494;6.976;2023-10-08T04:03:45;3.67;;;1.80;;
22894;SDS011;11614;52.494;6.976;2023-10-08T04:06:17;3.20;;;1.60;;
22894;SDS011;11614;52.494;6.976;2023-10-08T04:08:47;2.63;;;1.30;;
22894;SDS011;11614;52.494;6.976;2023-10-08T04:11:32;3.33;;;1.90;;
22894;SDS011;11614;52.494;6.976;2023-10-08T04:14:08;4.30;;;2.03;;
22894;SDS011;11614;52.494;6.976;2023-10-08T04:16:34;3.67;;;1.83;;
22894;SDS011;11614;52.494;6.976;2023-10-08T04:19:02;3.10;;;1.77;;
22894;SDS011;11614;52.494;6.976;2023-10-08T04:21:28;3.10;;;1.97;;
22894;SDS011;11614;52.494;6.976;2023-10-08T04:23:55;4.30;;;1.97;;
22894;SDS011;11614;52.494;6.976;2023-10-08T04:26:22;3.30;;;1.87;;
22894;SDS011;11614;52.494;6.976;2023-10-08T04:28:58;3.30;;;1.97;;
22894;SDS011;11614;52.494;6.976;2023-10-08T04:31:30;5.10;;;2.60;;
22894;SDS011;11614;52.494;6.976;2023-10-08T04:34:06;5.20;;;2.97;;
22894;SDS011;11614;52.494;6.976;2023-10-08T04:36:44;5.00;;;2.03;;
22894;SDS011;11614;52.494;6.976;2023-10-08T04:39:11;4.67;;;2.50;;
22894;SDS011;11614;52.494;6.976;2023-10-08T04:41:41;5.37;;;2.93;;
22894;SDS011;11614;52.494;6.976;2023-10-08T04:44:10;4.43;;;2.60;;
22894;SDS011;11614;52.494;6.976;2023-10-08T04:46:43;5.13;;;2.47;;
22894;SDS011;11614;52.494;6.976;2023-10-08T04:49:16;5.83;;;3.07;;
22894;SDS011;11614;52.494;6.976;2023-10-08T04:52:02;4.57;;;2.67;;
22894;SDS011;11614;52.494;6.976;2023-10-08T04:54:33;6.03;;;3.17;;
22894;SDS011;11614;52.494;6.976;2023-10-08T04:57:05;5.27;;;3.20;;
22894;SDS011;11614;52.494;6.976;2023-10-08T04:59:31;5.43;;;3.00;;
22894;SDS011;11614;52.494;6.976;2023-10-08T05:02:07;5.80;;;3.27;;
22894;SDS011;11614;52.494;6.976;2023-10-08T05:04:39;5.97;;;3.47;;
22894;SDS011;11614;52.494;6.976;2023-10-08T05:07:18;7.40;;;3.87;;
22894;SDS011;11614;52.494;6.976;2023-10-08T05:10:04;7.40;;;3.90;;
22894;SDS011;11614;52.494;6.976;2023-10-08T05:12:33;7.80;;;4.33;;
22894;SDS011;11614;52.494;6.976;2023-10-08T05:15:02;6.57;;;3.23;;
22894;SDS011;11614;52.494;6.976;2023-10-08T05:17:40;10.80;;;4.00;;
22894;SDS011;11614;52.494;6.976;2023-10-08T05:20:16;7.03;;;3.90;;
22894;SDS011;11614;52.494;6.976;2023-10-08T05:22:55;7.10;;;3.60;;
22894;SDS011;11614;52.494;6.976;2023-10-08T05:25:31;7.57;;;4.13;;
22894;SDS011;11614;52.494;6.976;2023-10-08T05:28:22;8.90;;;4.60;;
22894;SDS011;11614;52.494;6.976;2023-10-08T05:30:51;6.87;;;3.90;;
22894;SDS011;11614;52.494;6.976;2023-10-08T05:33:36;8.03;;;4.07;;
22894;SDS011;11614;52.494;6.976;2023-10-08T05:36:21;5.77;;;3.70;;
22894;SDS011;11614;52.494;6.976;2023-10-08T05:39:00;5.93;;;3.70;;
22894;SDS011;11614;52.494;6.976;2023-10-08T05:41:41;6.70;;;3.23;;
22894;SDS011;11614;52.494;6.976;2023-10-08T05:44:16;6.33;;;3.53;;
22894;SDS011;11614;52.494;6.976;2023-10-08T05:46:42;6.70;;;3.27;;
22894;SDS011;11614;52.494;6.976;2023-10-08T05:49:18;4.80;;;2.53;;
22894;SDS011;11614;52.494;6.976;2023-10-08T05:51:53;5.83;;;3.00;;
22894;SDS011;11614;52.494;6.976;2023-10-08T05:54:25;7.70;;;3.40;;
22894;SDS011;11614;52.494;6.976;2023-10-08T05:56:57;7.53;;;3.60;;
22894;SDS011;11614;52.494;6.976;2023-10-08T05:59:37;7.37;;;2.90;;
22894;SDS011;11614;52.494;6.976;2023-10-08T06:02:21;5.93;;;3.27;;
22894;SDS011;11614;52.494;6.976;2023-10-08T06:05:00;5.00;;;2.37;;
22894;SDS011;11614;52.494;6.976;2023-10-08T06:07:59;3.87;;;2.13;;
22894;SDS011;11614;52.494;6.976;2023-10-08T06:10:37;6.30;;;2.77;;
22894;SDS011;11614;52.494;6.976;2023-10-08T06:13:04;5.10;;;2.67;;
22894;SDS011;11614;52.494;6.976;2023-10-08T06:15:49;5.90;;;2.80;;
22894;SDS011;11614;52.494;6.976;2023-10-08T06:18:25;4.97;;;2.90;;
22894;SDS011;11614;52.494;6.976;2023-10-08T06:20:52;6.93;;;2.77;;
22894;SDS011;11614;52.494;6.976;2023-10-08T06:23:23;5.70;;;2.83;;
22894;SDS011;11614;52.494;6.976;2023-10-08T06:25:50;7.67;;;2.90;;
22894;SDS011;11614;52.494;6.976;2023-10-08T06:28:22;6.53;;;2.37;;
22894;SDS011;11614;52.494;6.976;2023-10-08T06:30:50;5.40;;;2.53;;
22894;SDS011;11614;52.494;6.976;2023-10-08T06:33:18;6.50;;;2.90;;
22894;SDS011;11614;52.494;6.976;2023-10-08T06:35:50;7.47;;;3.13;;
22894;SDS011;11614;52.494;6.976;2023-10-08T06:38:27;6.03;;;2.73;;
22894;SDS011;11614;52.494;6.976;2023-10-08T06:40:55;6.50;;;3.43;;
22894;SDS011;11614;52.494;6.976;2023-10-08T06:43:25;7.67;;;3.40;;
22894;SDS011;11614;52.494;6.976;2023-10-08T06:45:51;7.27;;;3.07;;
22894;SDS011;11614;52.494;6.976;2023-10-08T06:48:18;5.43;;;2.30;;
22894;SDS011;11614;52.494;6.976;2023-10-08T06:50:45;7.87;;;2.97;;
22894;SDS011;11614;52.494;6.976;2023-10-08T06:53:11;4.73;;;2.53;;
22894;SDS011;11614;52.494;6.976;2023-10-08T06:55:39;6.73;;;3.07;;
22894;SDS011;11614;52.494;6.976;2023-10-08T06:58:05;5.30;;;2.40;;
22894;SDS011;11614;52.494;6.976;2023-10-08T07:00:33;6.07;;;3.33;;
22894;SDS011;11614;52.494;6.976;2023-10-08T07:03:08;5.97;;;3.30;;
22894;SDS011;11614;52.494;6.976;2023-10-08T07:05:49;5.47;;;3.20;;
22894;SDS011;11614;52.494;6.976;2023-10-08T07:08:33;4.60;;;2.33;;
22894;SDS011;11614;52.494;6.976;2023-10-08T07:11:01;5.23;;;3.00;;
22894;SDS011;11614;52.494;6.976;2023-10-08T07:13:33;5.23;;;2.60;;
22894;SDS011;11614;52.494;6.976;2023-10-08T07:16:01;5.83;;;2.83;;
22894;SDS011;11614;52.494;6.976;2023-10-08T07:18:29;4.60;;;2.57;;
22894;SDS011;11614;52.494;6.976;2023-10-08T07:20:58;5.27;;;2.53;;
22894;SDS011;11614;52.494;6.976;2023-10-08T07:23:29;6.03;;;2.73;;
22894;SDS011;11614;52.494;6.976;2023-10-08T07:26:02;7.70;;;3.47;;
22894;SDS011;11614;52.494;6.976;2023-10-08T07:28:49;9.33;;;3.00;;
22894;SDS011;11614;52.494;6.976;2023-10-08T07:31:17;7.00;;;2.87;;
22894;SDS011;11614;52.494;6.976;2023-10-08T07:33:46;6.30;;;2.50;;
22894;SDS011;11614;52.494;6.976;2023-10-08T07:36:12;5.80;;;2.73;;
22894;SDS011;11614;52.494;6.976;2023-10-08T07:38:42;4.23;;;2.37;;
22894;SDS011;11614;52.494;6.976;2023-10-08T07:41:09;6.77;;;2.67;;
22894;SDS011;11614;52.494;6.976;2023-10-08T07:43:37;4.47;;;2.43;;
22894;SDS011;11614;52.494;6.976;2023-10-08T07:46:03;7.43;;;2.50;;
22894;SDS011;11614;52.494;6.976;2023-10-08T07:48:30;5.77;;;2.67;;
22894;SDS011;11614;52.494;6.976;2023-10-08T07:50:56;4.77;;;2.50;;
22894;SDS011;11614;52.494;6.976;2023-10-08T07:53:23;5.20;;;2.53;;
22894;SDS011;11614;52.494;6.976;2023-10-08T07:55:50;5.97;;;2.73;;
22894;SDS011;11614;52.494;6.976;2023-10-08T07:58:17;6.33;;;3.27;;
22894;SDS011;11614;52.494;6.976;2023-10-08T08:00:43;8.47;;;2.97;;
22894;SDS011;11614;52.494;6.976;2023-10-08T08:03:19;4.23;;;2.67;;
22894;SDS011;11614;52.494;6.976;2023-10-08T08:05:46;7.00;;;2.20;;
22894;SDS011;11614;52.494;6.976;2023-10-08T08:08:14;6.07;;;2.47;;
22894;SDS011;11614;52.494;6.976;2023-10-08T08:10:43;5.30;;;3.07;;
22894;SDS011;11614;52.494;6.976;2023-10-08T08:13:09;10.37;;;5.27;;
22894;SDS011;11614;52.494;6.976;2023-10-08T08:15:35;5.93;;;2.87;;
22894;SDS011;11614;52.494;6.976;2023-10-08T08:18:06;6.67;;;3.20;;
22894;SDS011;11614;52.494;6.976;2023-10-08T08:20:35;7.97;;;2.90;;
22894;SDS011;11614;52.494;6.976;2023-10-08T08:23:08;5.07;;;2.53;;
22894;SDS011;11614;52.494;6.976;2023-10-08T08:25:41;7.13;;;2.47;;
22894;SDS011;11614;52.494;6.976;2023-10-08T08:28:21;5.50;;;2.33;;
22894;SDS011;11614;52.494;6.976;2023-10-08T08:30:49;4.30;;;2.30;;
22894;SDS011;11614;52.494;6.976;2023-10-08T08:33:17;4.60;;;1.83;;
22894;SDS011;11614;52.494;6.976;2023-10-08T08:36:08;6.10;;;2.33;;
22894;SDS011;11614;52.494;6.976;2023-10-08T08:38:34;5.40;;;2.10;;
22894;SDS011;11614;52.494;6.976;2023-10-08T08:41:01;4.70;;;1.93;;
22894;SDS011;11614;52.494;6.976;2023-10-08T08:43:32;4.10;;;1.87;;
22894;SDS011;11614;52.494;6.976;2023-10-08T08:45:58;4.80;;;1.90;;
22894;SDS011;11614;52.494;6.976;2023-10-08T08:48:25;5.57;;;2.00;;
22894;SDS011;11614;52.494;6.976;2023-10-08T08:50:51;5.30;;;2.17;;
22894;SDS011;11614;52.494;6.976;2023-10-08T08:53:18;5.03;;;2.13;;
22894;SDS011;11614;52.494;6.976;2023-10-08T08:55:44;4.83;;;2.30;;
22894;SDS011;11614;52.494;6.976;2023-10-08T08:58:11;4.50;;;2.87;;
22894;SDS011;11614;52.494;6.976;2023-10-08T09:00:37;7.63;;;2.58;;
22894;SDS011;11614;52.494;6.976;2023-10-08T09:03:06;8.23;;;2.38;;
22894;SDS011;11614;52.494;6.976;2023-10-08T09:05:33;4.10;;;1.88;;
22894;SDS011;11614;52.494;6.976;2023-10-08T09:08:03;6.22;;;2.25;;
22894;SDS011;11614;52.494;6.976;2023-10-08T09:10:30;2.90;;;1.88;;
22894;SDS011;11614;52.494;6.976;2023-10-08T09:13:02;4.22;;;1.70;;
22894;SDS011;11614;52.494;6.976;2023-10-08T09:15:28;4.68;;;1.98;;
22894;SDS011;11614;52.494;6.976;2023-10-08T09:17:55;4.85;;;1.98;;
22894;SDS011;11614;52.494;6.976;2023-10-08T09:20:21;4.25;;;1.95;;
22894;SDS011;11614;52.494;6.976;2023-10-08T09:23:06;3.03;;;1.52;;
22894;SDS011;11614;52.494;6.976;2023-10-08T09:25:33;4.70;;;1.90;;
22894;SDS011;11614;52.494;6.976;2023-10-08T09:27:59;4.93;;;1.92;;
22894;SDS011;11614;52.494;6.976;2023-10-08T09:30:27;6.30;;;1.88;;
22894;SDS011;11614;52.494;6.976;2023-10-08T09:32:54;3.70;;;1.23;;
22894;SDS011;11614;52.494;6.976;2023-10-08T09:35:20;8.20;;;2.13;;
22894;SDS011;11614;52.494;6.976;2023-10-08T09:37:48;5.80;;;2.17;;
22894;SDS011;11614;52.494;6.976;2023-10-08T09:40:14;5.00;;;2.10;;
22894;SDS011;11614;52.494;6.976;2023-10-08T09:42:45;3.45;;;1.23;;
22894;SDS011;11614;52.494;6.976;2023-10-08T09:45:12;3.08;;;1.35;;
22894;SDS011;11614;52.494;6.976;2023-10-08T09:47:40;3.08;;;1.08;;
22894;SDS011;11614;52.494;6.976;2023-10-08T09:50:08;3.05;;;1.17;;
22894;SDS011;11614;52.494;6.976;2023-10-08T09:52:39;6.18;;;1.23;;
22894;SDS011;11614;52.494;6.976;2023-10-08T09:55:10;4.35;;;1.35;;
22894;SDS011;11614;52.494;6.976;2023-10-08T09:57:36;3.90;;;1.23;;
22894;SDS011;11614;52.494;6.976;2023-10-08T10:00:04;2.95;;;1.33;;
22894;SDS011;11614;52.494;6.976;2023-10-08T10:02:41;4.53;;;1.52;;
22894;SDS011;11614;52.494;6.976;2023-10-08T10:05:10;7.57;;;1.20;;
22894;SDS011;11614;52.494;6.976;2023-10-08T10:07:36;2.90;;;0.93;;
22894;SDS011;11614;52.494;6.976;2023-10-08T10:10:29;4.78;;;1.83;;
22894;SDS011;11614;52.494;6.976;2023-10-08T10:12:59;4.35;;;1.63;;
22894;SDS011;11614;52.494;6.976;2023-10-08T10:15:26;5.43;;;2.13;;
22894;SDS011;11614;52.494;6.976;2023-10-08T10:17:58;3.15;;;1.30;;
22894;SDS011;11614;52.494;6.976;2023-10-08T10:20:24;4.75;;;1.40;;
22894;SDS011;11614;52.494;6.976;2023-10-08T10:22:57;3.33;;;0.95;;
22894;SDS011;11614;52.494;6.976;2023-10-08T10:25:33;4.15;;;0.93;;
22894;SDS011;11614;52.494;6.976;2023-10-08T10:30:33;3.15;;;1.02;;
22894;SDS011;11614;52.494;6.976;2023-10-08T10:33:00;4.50;;;1.20;;
22894;SDS011;11614;52.494;6.976;2023-10-08T10:35:26;5.30;;;1.33;;
22894;SDS011;11614;52.494;6.976;2023-10-08T10:37:53;1.13;;;1.02;;
22894;SDS011;11614;52.494;6.976;2023-10-08T10:40:23;3.60;;;1.35;;
22894;SDS011;11614;52.494;6.976;2023-10-08T10:43:05;2.55;;;1.00;;
22894;SDS011;11614;52.494;6.976;2023-10-08T10:45:34;3.25;;;1.33;;
22894;SDS011;11614;52.494;6.976;2023-10-08T10:48:04;2.92;;;1.08;;
22894;SDS011;11614;52.494;6.976;2023-10-08T10:50:56;3.33;;;1.30;;
22894;SDS011;11614;52.494;6.976;2023-10-08T10:53:33;2.70;;;1.33;;
22894;SDS011;11614;52.494;6.976;2023-10-08T10:56:11;4.13;;;1.13;;
22894;SDS011;11614;52.494;6.976;2023-10-08T10:59:00;2.30;;;1.48;;
22894;SDS011;11614;52.494;6.976;2023-10-08T11:01:40;4.05;;;1.48;;
22894;SDS011;11614;52.494;6.976;2023-10-08T11:04:11;2.97;;;1.45;;
22894;SDS011;11614;52.494;6.976;2023-10-08T11:06:43;2.72;;;1.80;;
22894;SDS011;11614;52.494;6.976;2023-10-08T11:09:09;3.00;;;1.95;;
22894;SDS011;11614;52.494;6.976;2023-10-08T11:11:41;2.60;;;1.58;;
22894;SDS011;11614;52.494;6.976;2023-10-08T11:14:11;2.88;;;1.30;;
22894;SDS011;11614;52.494;6.976;2023-10-08T11:16:43;2.78;;;1.20;;
22894;SDS011;11614;52.494;6.976;2023-10-08T11:19:11;5.93;;;1.40;;
22894;SDS011;11614;52.494;6.976;2023-10-08T11:21:52;4.43;;;1.58;;
22894;SDS011;11614;52.494;6.976;2023-10-08T11:24:28;4.10;;;1.67;;
22894;SDS011;11614;52.494;6.976;2023-10-08T11:26:54;3.10;;;1.60;;
22894;SDS011;11614;52.494;6.976;2023-10-08T11:29:47;2.35;;;1.17;;
22894;SDS011;11614;52.494;6.976;2023-10-08T11:32:18;2.45;;;1.25;;
22894;SDS011;11614;52.494;6.976;2023-10-08T11:34:54;5.53;;;1.92;;
22894;SDS011;11614;52.494;6.976;2023-10-08T11:37:26;1.90;;;0.95;;
22894;SDS011;11614;52.494;6.976;2023-10-08T11:39:52;4.47;;;1.20;;
22894;SDS011;11614;52.494;6.976;2023-10-08T11:42:23;2.58;;;1.17;;
22894;SDS011;11614;52.494;6.976;2023-10-08T11:44:58;3.47;;;1.17;;
22894;SDS011;11614;52.494;6.976;2023-10-08T11:47:24;4.10;;;0.98;;
22894;SDS011;11614;52.494;6.976;2023-10-08T11:49:58;3.97;;;1.00;;
22894;SDS011;11614;52.494;6.976;2023-10-08T11:52:37;2.50;;;1.40;;
22894;SDS011;11614;52.494;6.976;2023-10-08T11:55:09;3.28;;;1.60;;
22894;SDS011;11614;52.494;6.976;2023-10-08T11:57:39;3.88;;;1.23;;
22894;SDS011;11614;52.494;6.976;2023-10-08T12:00:11;1.60;;;1.15;;
22894;SDS011;11614;52.494;6.976;2023-10-08T12:03:03;4.85;;;1.60;;
22894;SDS011;11614;52.494;6.976;2023-10-08T12:05:30;3.97;;;1.55;;
22894;SDS011;11614;52.494;6.976;2023-10-08T12:07:57;1.67;;;0.90;;
22894;SDS011;11614;52.494;6.976;2023-10-08T12:10:23;2.53;;;1.10;;
22894;SDS011;11614;52.494;6.976;2023-10-08T12:15:17;2.03;;;1.27;;
22894;SDS011;11614;52.494;6.976;2023-10-08T12:17:46;2.60;;;1.30;;
22894;SDS011;11614;52.494;6.976;2023-10-08T12:20:21;4.15;;;1.63;;
22894;SDS011;11614;52.494;6.976;2023-10-08T12:22:52;2.58;;;1.38;;
22894;SDS011;11614;52.494;6.976;2023-10-08T12:25:18;4.53;;;1.30;;
22894;SDS011;11614;52.494;6.976;2023-10-08T12:27:45;4.95;;;1.95;;
22894;SDS011;11614;52.494;6.976;2023-10-08T12:30:12;2.70;;;1.17;;
22894;SDS011;11614;52.494;6.976;2023-10-08T12:32:38;2.83;;;1.63;;
22894;SDS011;11614;52.494;6.976;2023-10-08T12:35:10;3.75;;;2.08;;
22894;SDS011;11614;52.494;6.976;2023-10-08T12:37:39;1.67;;;1.33;;
22894;SDS011;11614;52.494;6.976;2023-10-08T12:40:06;4.40;;;1.58;;
22894;SDS011;11614;52.494;6.976;2023-10-08T12:42:48;3.28;;;1.55;;
22894;SDS011;11614;52.494;6.976;2023-10-08T12:45:15;1.80;;;0.90;;
22894;SDS011;11614;52.494;6.976;2023-10-08T12:47:46;5.05;;;1.70;;
22894;SDS011;11614;52.494;6.976;2023-10-08T12:50:12;4.13;;;1.30;;
22894;SDS011;11614;52.494;6.976;2023-10-08T12:52:41;2.97;;;1.88;;
22894;SDS011;11614;52.494;6.976;2023-10-08T12:55:12;1.95;;;1.30;;
22894;SDS011;11614;52.494;6.976;2023-10-08T12:57:38;2.40;;;1.52;;
22894;SDS011;11614;52.494;6.976;2023-10-08T13:00:06;4.95;;;1.88;;
22894;SDS011;11614;52.494;6.976;2023-10-08T13:02:33;3.63;;;1.67;;
22894;SDS011;11614;52.494;6.976;2023-10-08T13:05:04;2.55;;;1.38;;
22894;SDS011;11614;52.494;6.976;2023-10-08T13:07:40;2.97;;;1.80;;
22894;SDS011;11614;52.494;6.976;2023-10-08T13:10:08;4.15;;;1.90;;
22894;SDS011;11614;52.494;6.976;2023-10-08T13:12:39;3.78;;;1.70;;
22894;SDS011;11614;52.494;6.976;2023-10-08T13:15:06;3.85;;;1.70;;
22894;SDS011;11614;52.494;6.976;2023-10-08T13:17:32;1.80;;;1.45;;
22894;SDS011;11614;52.494;6.976;2023-10-08T13:19:58;1.98;;;1.67;;
22894;SDS011;11614;52.494;6.976;2023-10-08T13:22:24;3.75;;;2.20;;
22894;SDS011;11614;52.494;6.976;2023-10-08T13:24:52;2.75;;;1.55;;
22894;SDS011;11614;52.494;6.976;2023-10-08T13:27:18;2.90;;;1.73;;
22894;SDS011;11614;52.494;6.976;2023-10-08T13:29:44;2.33;;;1.35;;
22894;SDS011;11614;52.494;6.976;2023-10-08T13:32:10;2.45;;;1.70;;
22894;SDS011;11614;52.494;6.976;2023-10-08T13:34:42;2.65;;;1.58;;
22894;SDS011;11614;52.494;6.976;2023-10-08T13:37:08;2.72;;;1.38;;
22894;SDS011;11614;52.494;6.976;2023-10-08T13:39:34;2.00;;;1.23;;
22894;SDS011;11614;52.494;6.976;2023-10-08T13:42:00;2.17;;;1.30;;
22894;SDS011;11614;52.494;6.976;2023-10-08T13:44:28;2.28;;;1.13;;
22894;SDS011;11614;52.494;6.976;2023-10-08T13:46:54;2.58;;;0.90;;
22894;SDS011;11614;52.494;6.976;2023-10-08T13:49:22;1.80;;;0.90;;
22894;SDS011;11614;52.494;6.976;2023-10-08T13:51:48;2.95;;;1.15;;
22894;SDS011;11614;52.494;6.976;2023-10-08T13:54:21;6.38;;;1.95;;
22894;SDS011;11614;52.494;6.976;2023-10-08T13:56:47;2.13;;;1.38;;
22894;SDS011;11614;52.494;6.976;2023-10-08T13:59:13;2.05;;;1.08;;
22894;SDS011;11614;52.494;6.976;2023-10-08T14:01:41;2.65;;;1.48;;
22894;SDS011;11614;52.494;6.976;2023-10-08T14:04:11;2.83;;;1.58;;
22894;SDS011;11614;52.494;6.976;2023-10-08T14:06:40;2.92;;;1.13;;
22894;SDS011;11614;52.494;6.976;2023-10-08T14:09:13;2.05;;;0.95;;
22894;SDS011;11614;52.494;6.976;2023-10-08T14:11:45;2.78;;;1.27;;
22894;SDS011;11614;52.494;6.976;2023-10-08T14:14:12;4.75;;;1.38;;
22894;SDS011;11614;52.494;6.976;2023-10-08T14:16:41;4.90;;;1.15;;
22894;SDS011;11614;52.494;6.976;2023-10-08T14:19:08;1.98;;;1.20;;
22894;SDS011;11614;52.494;6.976;2023-10-08T14:21:37;3.58;;;1.85;;
22894;SDS011;11614;52.494;6.976;2023-10-08T14:24:13;6.82;;;1.63;;
22894;SDS011;11614;52.494;6.976;2023-10-08T14:26:40;4.25;;;1.88;;
22894;SDS011;11614;52.494;6.976;2023-10-08T14:29:07;3.28;;;1.73;;
22894;SDS011;11614;52.494;6.976;2023-10-08T14:31:36;2.25;;;1.13;;
22894;SDS011;11614;52.494;6.976;2023-10-08T14:34:04;3.65;;;2.15;;
22894;SDS011;11614;52.494;6.976;2023-10-08T14:36:33;4.40;;;1.60;;
22894;SDS011;11614;52.494;6.976;2023-10-08T14:39:18;4.60;;;2.00;;
22894;SDS011;11614;52.494;6.976;2023-10-08T14:42:03;3.97;;;1.70;;
22894;SDS011;11614;52.494;6.976;2023-10-08T14:44:48;3.20;;;1.73;;
22894;SDS011;11614;52.494;6.976;2023-10-08T14:47:15;4.35;;;1.75;;
22894;SDS011;11614;52.494;6.976;2023-10-08T14:49:41;3.25;;;1.88;;
22894;SDS011;11614;52.494;6.976;2023-10-08T14:52:13;5.03;;;1.80;;
22894;SDS011;11614;52.494;6.976;2023-10-08T14:54:39;2.72;;;1.45;;
22894;SDS011;11614;52.494;6.976;2023-10-08T14:57:07;5.05;;;2.15;;
22894;SDS011;11614;52.494;6.976;2023-10-08T14:59:33;3.53;;;1.60;;
22894;SDS011;11614;52.494;6.976;2023-10-08T15:01:59;2.72;;;1.52;;
22894;SDS011;11614;52.494;6.976;2023-10-08T15:04:25;2.30;;;1.42;;
22894;SDS011;11614;52.494;6.976;2023-10-08T15:06:54;3.92;;;2.00;;
22894;SDS011;11614;52.494;6.976;2023-10-08T15:09:24;4.07;;;2.10;;
22894;SDS011;11614;52.494;6.976;2023-10-08T15:11:50;2.45;;;1.50;;
22894;SDS011;11614;52.494;6.976;2023-10-08T15:14:17;4.38;;;1.88;;